Terminal Aerodrome Forecast
Issued by NWS

Home | Current Version | Previous Version | Text Only | Print | Product List | Glossary On
Versions: 1 2 3 4 5 6 7 8 9 10
728
FTUS43 KILX 250523
TAFBMI
TAF
KBMI 250523Z 2506/2606 15006KT P6SM SCT250
     FM251700 16016G24KT P6SM BKN200
     FM260200 16012KT P6SM BKN120=

USA.gov is the U.S. government's official web portal to all federal, state and local government web resources and services.